createdAt,value
2022-10-11T00:01:52.451Z,6.87
2022-10-11T00:04:22.369Z,8.20
2022-10-11T00:06:49.610Z,7.65
2022-10-11T00:09:18.133Z,8.70
2022-10-11T00:11:45.177Z,7.47
2022-10-11T00:14:12.107Z,9.13
2022-10-11T00:16:39.078Z,6.55
2022-10-11T00:19:06.165Z,8.00
2022-10-11T00:21:33.157Z,8.20
2022-10-11T00:24:00.232Z,7.68
2022-10-11T00:26:27.592Z,7.50
2022-10-11T00:28:54.503Z,8.35
2022-10-11T00:31:21.750Z,7.93
2022-10-11T00:33:48.760Z,7.47
2022-10-11T00:36:15.739Z,7.70
2022-10-11T00:38:43.757Z,7.73
2022-10-11T00:41:10.996Z,7.70
2022-10-11T00:43:38.318Z,8.00
2022-10-11T00:46:19.574Z,8.10
2022-10-11T00:48:50.997Z,7.10
2022-10-11T00:51:44.084Z,7.83
2022-10-11T00:54:15.814Z,6.63
2022-10-11T00:56:46.196Z,8.73
2022-10-11T00:59:18.519Z,8.02
2022-10-11T01:01:45.677Z,8.27
2022-10-11T01:04:13.038Z,8.73
2022-10-11T01:06:40.673Z,8.82
2022-10-11T01:09:07.891Z,7.75
2022-10-11T01:11:38.312Z,8.02
2022-10-11T01:14:14.156Z,9.25
2022-10-11T01:17:02.607Z,9.77
2022-10-11T01:19:52.925Z,9.15
2022-10-11T01:22:38.333Z,9.48
2022-10-11T01:25:31.959Z,8.82
2022-10-11T01:28:33.130Z,8.50
2022-10-11T01:31:30.371Z,9.20
2022-10-11T01:34:34.359Z,8.82
2022-10-11T01:37:23.917Z,9.10
2022-10-11T01:40:08.137Z,8.98
2022-10-11T01:42:38.857Z,8.95
2022-10-11T01:45:09.713Z,10.47
2022-10-11T01:47:36.602Z,9.63
2022-10-11T01:50:04.317Z,9.60
2022-10-11T01:52:34.814Z,9.43
2022-10-11T01:55:23.889Z,9.57
2022-10-11T01:58:11.272Z,9.77
2022-10-11T02:00:58.284Z,9.02
2022-10-11T02:03:39.046Z,9.60
2022-10-11T02:06:10.774Z,10.18
2022-10-11T02:08:55.310Z,10.27
2022-10-11T02:11:29.818Z,9.73
2022-10-11T02:14:02.655Z,10.45
2022-10-11T02:16:37.730Z,9.93
2022-10-11T02:19:07.552Z,10.63
2022-10-11T02:21:38.118Z,10.60
2022-10-11T02:24:19.246Z,10.17
2022-10-11T02:26:50.408Z,10.32
2022-10-11T02:29:18.415Z,10.55
2022-10-11T02:31:46.169Z,10.55
2022-10-11T02:34:32.038Z,10.18
2022-10-11T02:37:22.163Z,10.30
2022-10-11T02:39:55.565Z,10.35
2022-10-11T02:42:33.885Z,10.65
2022-10-11T02:45:07.822Z,10.15
2022-10-11T02:47:35.476Z,9.93
2022-10-11T02:50:03.133Z,10.60
2022-10-11T02:52:29.957Z,11.15
2022-10-11T02:54:57.152Z,9.88
2022-10-11T02:57:24.012Z,10.20
2022-10-11T02:59:50.963Z,9.93
2022-10-11T03:02:18.333Z,10.40
2022-10-11T03:04:45.590Z,10.27
2022-10-11T03:07:12.592Z,9.82
2022-10-11T03:09:39.617Z,10.32
2022-10-11T03:12:07.214Z,10.23
2022-10-11T03:14:34.537Z,10.63
2022-10-11T03:17:23.644Z,9.80
2022-10-11T03:19:48.676Z,11.00
2022-10-11T03:22:17.494Z,10.88
2022-10-11T03:24:44.231Z,10.35
2022-10-11T03:27:11.712Z,10.10
2022-10-11T03:29:38.831Z,10.40
2022-10-11T03:32:06.084Z,9.80
2022-10-11T03:34:33.151Z,10.02
2022-10-11T03:37:00.007Z,10.02
2022-10-11T03:39:26.859Z,10.93
2022-10-11T03:41:53.772Z,10.75
2022-10-11T03:44:21.028Z,10.95
2022-10-11T03:46:47.928Z,11.07
2022-10-11T03:49:14.835Z,11.32
2022-10-11T03:51:41.755Z,10.73
2022-10-11T03:54:08.562Z,11.43
2022-10-11T03:56:35.732Z,11.30
2022-10-11T03:59:02.844Z,10.88
2022-10-11T04:01:29.657Z,12.52
2022-10-11T04:03:57.772Z,11.80
2022-10-11T04:06:24.853Z,12.15
2022-10-11T04:08:51.781Z,12.45
2022-10-11T04:11:18.835Z,12.63
2022-10-11T04:13:45.750Z,12.55
2022-10-11T04:16:12.799Z,13.10
2022-10-11T04:18:39.798Z,12.05
2022-10-11T04:21:07.437Z,12.45
2022-10-11T04:23:37.399Z,12.02
2022-10-11T04:26:07.317Z,12.00
2022-10-11T04:28:35.575Z,11.80
2022-10-11T04:31:02.587Z,13.93
2022-10-11T04:33:29.605Z,13.45
2022-10-11T04:35:57.320Z,12.60
2022-10-11T04:38:24.483Z,13.68
2022-10-11T04:40:51.439Z,12.97
2022-10-11T04:43:18.532Z,13.35
2022-10-11T04:45:45.776Z,14.10
2022-10-11T04:48:12.860Z,14.90
2022-10-11T04:50:39.876Z,14.35
2022-10-11T04:53:06.649Z,12.43
2022-10-11T04:55:33.672Z,13.75
2022-10-11T04:58:00.651Z,14.68
2022-10-11T05:00:27.464Z,14.77
2022-10-11T05:02:54.400Z,13.10
2022-10-11T05:05:21.245Z,13.37
2022-10-11T05:07:48.197Z,12.90
2022-10-11T05:10:15.439Z,13.40
2022-10-11T05:12:42.537Z,14.48
2022-10-11T05:15:09.855Z,12.68
2022-10-11T05:17:36.886Z,13.10
2022-10-11T05:20:04.453Z,13.88
2022-10-11T05:22:31.259Z,13.48
2022-10-11T05:24:58.152Z,13.02
2022-10-11T05:27:25.124Z,14.57
2022-10-11T05:29:51.913Z,10.00
2022-10-11T05:32:18.931Z,13.95
2022-10-11T05:34:45.958Z,14.07
2022-10-11T05:37:12.657Z,15.43
2022-10-11T05:39:39.509Z,13.82
2022-10-11T05:42:09.743Z,12.50
2022-10-11T05:44:36.936Z,14.75
2022-10-11T05:47:04.256Z,13.98
2022-10-11T05:49:31.279Z,14.23
2022-10-11T05:51:58.122Z,14.02
2022-10-11T05:54:25.447Z,14.13
2022-10-11T05:56:52.443Z,15.48
2022-10-11T05:59:19.322Z,14.02
2022-10-11T06:01:46.366Z,13.32
2022-10-11T06:04:13.353Z,12.55
2022-10-11T06:06:40.433Z,13.10
2022-10-11T06:09:07.445Z,12.50
2022-10-11T06:11:34.451Z,12.30
2022-10-11T06:14:01.331Z,12.95
2022-10-11T06:16:28.275Z,11.90
2022-10-11T06:18:56.721Z,12.57
2022-10-11T06:21:24.352Z,11.45
2022-10-11T06:23:52.950Z,11.13
2022-10-11T06:26:21.659Z,12.02
2022-10-11T06:28:48.949Z,12.05
2022-10-11T06:31:16.055Z,10.93
2022-10-11T06:33:43.236Z,11.43
2022-10-11T06:36:12.796Z,10.32
2022-10-11T06:38:44.488Z,10.82
2022-10-11T06:41:25.140Z,11.63
2022-10-11T06:43:52.232Z,10.17
2022-10-11T06:46:20.999Z,11.50
2022-10-11T06:48:48.929Z,10.43
2022-10-11T06:51:18.137Z,11.30
2022-10-11T06:53:53.412Z,11.57
2022-10-11T06:56:20.507Z,10.70
2022-10-11T06:58:47.958Z,10.43
2022-10-11T07:01:16.627Z,10.40
2022-10-11T07:03:43.623Z,11.98
2022-10-11T07:06:13.153Z,9.63
2022-10-11T07:08:40.592Z,11.43
2022-10-11T07:11:11.811Z,9.88
2022-10-11T07:13:39.758Z,10.25
2022-10-11T07:16:10.883Z,10.43
2022-10-11T07:18:38.340Z,10.70
2022-10-11T07:21:12.088Z,10.70
2022-10-11T07:23:39.640Z,11.48
2022-10-11T07:26:08.087Z,7.18
2022-10-11T07:28:36.968Z,10.30
2022-10-11T07:31:07.090Z,10.93
2022-10-11T07:33:34.339Z,9.53
2022-10-11T07:36:01.945Z,10.10
2022-10-11T07:38:28.956Z,10.20
2022-10-11T07:40:55.881Z,10.65
2022-10-11T07:43:23.176Z,10.63
2022-10-11T07:45:52.434Z,9.63
2022-10-11T07:48:20.833Z,11.10
2022-10-11T07:50:48.162Z,11.30
2022-10-11T07:53:15.090Z,12.50
2022-10-11T07:55:41.957Z,9.48
2022-10-11T07:58:10.194Z,9.77
2022-10-11T08:00:37.652Z,12.02
2022-10-11T08:03:06.269Z,10.43
2022-10-11T08:05:34.227Z,11.50
2022-10-11T08:08:01.362Z,10.65
2022-10-11T08:10:28.176Z,10.80
2022-10-11T08:12:55.429Z,10.63
2022-10-11T08:15:22.457Z,9.93
2022-10-11T08:17:49.361Z,10.65
2022-10-11T08:20:16.493Z,11.00
2022-10-11T08:22:43.346Z,9.40
2022-10-11T08:25:10.315Z,10.40
2022-10-11T08:27:37.516Z,9.20
2022-10-11T08:30:05.638Z,11.40
2022-10-11T08:32:32.500Z,11.55
2022-10-11T08:34:59.758Z,9.87
2022-10-11T08:37:26.649Z,10.98
2022-10-11T08:39:53.643Z,12.30
2022-10-11T08:42:36.829Z,10.95
2022-10-11T08:45:12.089Z,9.18
2022-10-11T08:47:43.198Z,11.07
2022-10-11T08:50:19.619Z,10.00
2022-10-11T08:52:52.763Z,9.85
2022-10-11T08:55:24.757Z,10.95
2022-10-11T08:57:54.894Z,11.00
2022-10-11T09:00:23.449Z,8.83
2022-10-11T09:03:29.916Z,10.60
2022-10-11T09:06:18.282Z,10.13
2022-10-11T09:09:06.641Z,9.35
2022-10-11T09:11:52.273Z,9.57
2022-10-11T09:14:39.935Z,8.13
2022-10-11T09:17:34.054Z,9.02
2022-10-11T09:20:34.535Z,8.55
2022-10-11T09:23:13.484Z,8.02
2022-10-11T09:25:47.247Z,9.32
2022-10-11T09:28:35.485Z,9.57
2022-10-11T09:31:02.964Z,10.48
2022-10-11T09:33:32.913Z,10.90
2022-10-11T09:36:01.234Z,9.00
2022-10-11T09:39:15.412Z,8.98
2022-10-11T09:41:56.488Z,8.13
2022-10-11T09:44:27.118Z,8.70
2022-10-11T09:46:56.818Z,9.25
2022-10-11T09:49:31.655Z,7.97
2022-10-11T09:52:02.462Z,7.78
2022-10-11T09:54:47.984Z,8.50
2022-10-11T09:57:27.077Z,10.05
2022-10-11T10:00:01.610Z,10.65
2022-10-11T10:02:29.969Z,9.98
2022-10-11T10:04:58.484Z,10.38
2022-10-11T10:07:26.138Z,9.17
2022-10-11T10:09:53.352Z,9.07
2022-10-11T10:12:24.114Z,9.25
2022-10-11T10:15:19.168Z,8.75
2022-10-11T10:17:50.762Z,9.50
2022-10-11T10:20:25.444Z,9.90
2022-10-11T10:22:53.402Z,11.40
2022-10-11T10:25:33.200Z,10.38
2022-10-11T10:28:02.951Z,11.23
2022-10-11T10:30:35.247Z,9.68
2022-10-11T10:33:07.158Z,8.80
2022-10-11T10:35:49.286Z,9.23
2022-10-11T10:38:27.731Z,10.77
2022-10-11T10:41:01.356Z,10.85
2022-10-11T10:43:34.006Z,9.70
2022-10-11T10:46:18.686Z,10.23
2022-10-11T10:52:41.099Z,9.02
2022-10-11T10:55:13.803Z,10.90
2022-10-11T10:57:58.755Z,10.65
2022-10-11T11:01:00.123Z,10.00
2022-10-11T11:03:37.298Z,9.27
2022-10-11T11:06:13.341Z,9.18
2022-10-11T11:09:18.850Z,10.40
2022-10-11T11:11:52.682Z,12.02
2022-10-11T11:14:25.251Z,9.20
2022-10-11T11:17:17.441Z,10.00
2022-10-11T11:19:56.157Z,10.35
2022-10-11T11:22:57.444Z,10.30
2022-10-11T11:26:01.397Z,11.07
2022-10-11T11:28:43.502Z,7.37
2022-10-11T11:31:37.844Z,10.50
2022-10-11T11:34:22.285Z,11.13
2022-10-11T11:37:02.152Z,9.68
2022-10-11T11:39:40.188Z,10.02
2022-10-11T11:42:14.040Z,9.43
2022-10-11T11:44:46.191Z,10.85
2022-10-11T11:47:33.077Z,10.05
2022-10-11T11:50:17.779Z,9.63
2022-10-11T11:52:48.596Z,10.82
2022-10-11T11:55:43.052Z,10.57
2022-10-11T11:58:27.935Z,9.80
2022-10-11T12:01:26.480Z,8.63
2022-10-11T12:04:03.160Z,9.88
2022-10-11T12:06:37.920Z,11.07
2022-10-11T12:09:31.080Z,10.90
2022-10-11T12:12:04.040Z,9.63
2022-10-11T12:14:33.687Z,10.18
2022-10-11T12:17:14.478Z,9.02
2022-10-11T12:19:44.559Z,8.73
2022-10-11T12:22:28.600Z,10.50
2022-10-11T12:25:28.295Z,10.68
2022-10-11T12:27:57.602Z,10.05
2022-10-11T12:30:44.605Z,10.45
2022-10-11T12:33:23.882Z,7.45
2022-10-11T12:35:53.818Z,10.30
2022-10-11T12:38:35.972Z,9.98
2022-10-11T12:41:11.371Z,10.15
2022-10-11T12:43:50.558Z,10.27
2022-10-11T12:46:29.156Z,9.80
2022-10-11T12:49:20.198Z,10.73
2022-10-11T12:52:01.716Z,10.90
2022-10-11T12:54:55.717Z,11.30
2022-10-11T12:57:22.439Z,11.25
2022-10-11T12:59:49.950Z,9.90
2022-10-11T13:02:41.881Z,9.60
2022-10-11T13:05:32.089Z,10.55
2022-10-11T13:08:04.043Z,9.80
2022-10-11T13:10:46.204Z,9.27
2022-10-11T13:13:27.253Z,10.85
2022-10-11T13:15:57.496Z,9.50
2022-10-11T13:18:26.417Z,13.25
2022-10-11T13:20:53.731Z,10.18
2022-10-11T13:23:25.810Z,10.27
2022-10-11T13:25:54.155Z,9.75
2022-10-11T13:28:22.416Z,10.57
2022-10-11T13:31:00.447Z,9.90
2022-10-11T13:33:31.756Z,10.90
2022-10-11T13:36:04.924Z,11.02
2022-10-11T13:38:35.478Z,11.93
2022-10-11T13:41:05.318Z,9.10
2022-10-11T13:43:32.791Z,10.38
2022-10-11T13:46:02.106Z,11.25
2022-10-11T13:48:31.946Z,10.32
2022-10-11T13:51:28.312Z,10.85
2022-10-11T13:54:08.459Z,7.47
2022-10-11T13:56:50.402Z,9.57
2022-10-11T13:59:23.760Z,10.63
2022-10-11T14:01:58.031Z,9.70
2022-10-11T14:04:29.474Z,10.65
2022-10-11T14:07:01.276Z,10.80
2022-10-11T14:09:31.561Z,11.20
2022-10-11T14:12:28.917Z,11.13
2022-10-11T14:14:55.712Z,10.15
2022-10-11T14:17:36.324Z,10.65
2022-10-11T14:20:12.076Z,10.40
2022-10-11T14:22:39.727Z,13.13
2022-10-11T14:25:06.882Z,11.57
2022-10-11T14:27:33.915Z,9.30
2022-10-11T14:30:24.014Z,10.43
2022-10-11T14:32:50.216Z,10.87
2022-10-11T14:35:26.515Z,11.05
2022-10-11T14:37:54.435Z,10.30
2022-10-11T14:40:27.377Z,10.52
2022-10-11T14:42:54.801Z,10.05
2022-10-11T14:45:21.853Z,11.87
2022-10-11T14:47:49.897Z,16.17
2022-10-11T14:50:27.455Z,11.90
2022-10-11T14:52:55.134Z,11.73
2022-10-11T14:55:22.593Z,12.65
2022-10-11T14:57:49.765Z,11.97
2022-10-11T15:00:19.930Z,12.32
2022-10-11T15:02:47.245Z,12.38
2022-10-11T15:05:14.579Z,13.00
2022-10-11T15:07:41.809Z,14.18
2022-10-11T15:10:22.492Z,14.90
2022-10-11T15:12:51.434Z,12.68
2022-10-11T15:15:20.154Z,12.50
2022-10-11T15:17:54.277Z,12.80
2022-10-11T15:20:34.165Z,11.15
2022-10-11T15:23:02.018Z,11.10
2022-10-11T15:25:29.594Z,11.75
2022-10-11T15:27:57.274Z,11.20
2022-10-11T15:30:28.256Z,12.48
2022-10-11T15:32:55.198Z,12.63
2022-10-11T15:35:23.569Z,12.77
2022-10-11T15:37:55.844Z,12.23
2022-10-11T15:40:31.434Z,12.52
2022-10-11T15:42:58.713Z,12.27
2022-10-11T15:45:26.235Z,12.88
2022-10-11T15:47:53.294Z,9.87
2022-10-11T15:50:20.249Z,12.65
2022-10-11T15:52:47.120Z,12.20
2022-10-11T15:55:13.871Z,12.95
2022-10-11T15:57:41.216Z,10.32
2022-10-11T16:00:08.671Z,10.87
2022-10-11T16:02:35.725Z,12.13
2022-10-11T16:05:03.337Z,11.55
2022-10-11T16:07:30.166Z,11.30
2022-10-11T16:09:59.044Z,12.07
2022-10-11T16:12:26.316Z,17.17
2022-10-11T16:14:53.557Z,12.88
2022-10-11T16:17:20.496Z,14.02
2022-10-11T16:19:47.592Z,12.73
2022-10-11T16:22:14.413Z,12.85
2022-10-11T16:24:41.156Z,14.90
2022-10-11T16:27:08.115Z,17.25
2022-10-11T16:29:35.080Z,23.15
2022-10-11T16:32:02.099Z,19.88
2022-10-11T16:34:29.081Z,15.68
2022-10-11T16:36:56.036Z,15.50
2022-10-11T16:39:22.824Z,14.30
2022-10-11T16:41:50.151Z,14.15
2022-10-11T16:44:19.634Z,13.77
2022-10-11T16:46:48.095Z,14.30
2022-10-11T16:49:16.758Z,13.03
2022-10-11T16:51:43.728Z,12.23
2022-10-11T16:54:10.608Z,11.98
2022-10-11T16:56:40.034Z,12.13
2022-10-11T16:59:07.534Z,12.48
2022-10-11T17:01:34.489Z,14.37
2022-10-11T17:04:01.874Z,11.93
2022-10-11T17:06:28.710Z,12.50
2022-10-11T17:08:55.691Z,12.27
2022-10-11T17:11:23.232Z,13.18
2022-10-11T17:13:52.258Z,13.97
2022-10-11T17:16:20.444Z,14.75
2022-10-11T17:18:47.767Z,13.13
2022-10-11T17:21:24.338Z,13.57
2022-10-11T17:23:57.992Z,14.43
2022-10-11T17:26:27.057Z,18.60
2022-10-11T17:28:56.235Z,15.27
2022-10-11T17:31:24.609Z,15.10
2022-10-11T17:33:51.719Z,15.45
2022-10-11T17:36:26.773Z,14.27
2022-10-11T17:38:54.572Z,15.77
2022-10-11T17:41:21.565Z,15.75
2022-10-11T17:43:48.724Z,16.00
2022-10-11T17:46:17.757Z,16.65
2022-10-11T17:48:44.661Z,16.00
2022-10-11T17:51:17.408Z,16.00
2022-10-11T17:53:45.205Z,15.90
2022-10-11T17:56:15.114Z,14.95
2022-10-11T17:58:42.596Z,15.70
2022-10-11T18:01:12.928Z,15.25
2022-10-11T18:03:40.317Z,17.10
2022-10-11T18:06:09.363Z,17.42
2022-10-11T18:08:40.569Z,16.95
2022-10-11T18:11:14.376Z,15.75
2022-10-11T18:13:42.169Z,18.33
2022-10-11T18:16:10.104Z,19.90
2022-10-11T18:18:42.609Z,19.92
2022-10-11T18:21:10.471Z,19.70
2022-10-11T18:23:37.449Z,20.33
2022-10-11T18:26:11.861Z,19.15
2022-10-11T18:28:39.637Z,19.10
2022-10-11T18:31:12.992Z,19.95
2022-10-11T18:33:41.923Z,18.95
2022-10-11T18:36:09.994Z,18.52
2022-10-11T18:38:36.924Z,17.98
2022-10-11T18:41:09.543Z,19.63
2022-10-11T18:43:37.689Z,18.83
2022-10-11T18:46:13.956Z,17.20
2022-10-11T18:48:42.296Z,18.30
2022-10-11T18:51:12.601Z,17.95
2022-10-11T18:53:39.632Z,19.73
2022-10-11T18:56:09.890Z,18.65
2022-10-11T18:58:37.636Z,20.08
2022-10-11T19:01:09.511Z,21.42
2022-10-11T19:03:37.234Z,20.85
2022-10-11T19:06:09.338Z,19.73
2022-10-11T19:08:36.920Z,20.35
2022-10-11T19:11:08.516Z,20.13
2022-10-11T19:13:36.394Z,18.90
2022-10-11T19:16:08.468Z,19.48
2022-10-11T19:18:40.431Z,19.83
2022-10-11T19:21:12.453Z,18.55
2022-10-11T19:23:41.899Z,19.20
2022-10-11T19:26:21.000Z,19.35
2022-10-11T19:28:53.800Z,17.75
2022-10-11T19:31:20.843Z,19.63
2022-10-11T19:33:47.806Z,18.67
2022-10-11T19:36:14.964Z,16.35
2022-10-11T19:38:46.916Z,16.30
2022-10-11T19:41:14.954Z,16.20
2022-10-11T19:43:41.974Z,16.70
2022-10-11T19:46:11.234Z,17.52
2022-10-11T19:48:39.335Z,13.98
2022-10-11T19:51:12.034Z,15.48
2022-10-11T19:53:39.196Z,15.52
2022-10-11T19:56:08.775Z,14.10
2022-10-11T19:58:35.939Z,14.73
2022-10-11T20:01:08.476Z,14.35
2022-10-11T20:03:36.114Z,14.38
2022-10-11T20:06:06.007Z,13.32
2022-10-11T20:08:33.959Z,14.53
2022-10-11T20:11:03.390Z,16.15
2022-10-11T20:13:34.722Z,12.93
2022-10-11T20:16:07.036Z,13.75
2022-10-11T20:18:34.299Z,15.75
2022-10-11T20:21:04.078Z,13.03
2022-10-11T20:23:33.030Z,12.82
2022-10-11T20:26:07.960Z,12.45
2022-10-11T20:28:36.078Z,12.50
2022-10-11T20:31:04.874Z,13.25
2022-10-11T20:33:32.672Z,13.47
2022-10-11T20:36:05.410Z,13.60
2022-10-11T20:38:33.690Z,18.17
2022-10-11T20:41:04.837Z,16.75
2022-10-11T20:43:31.821Z,15.43
2022-10-11T20:46:02.878Z,16.17
2022-10-11T20:48:30.578Z,15.77
2022-10-11T20:50:58.008Z,15.90
2022-10-11T20:53:25.692Z,14.55
2022-10-11T20:55:53.367Z,12.60
2022-10-11T20:58:21.357Z,13.57
2022-10-11T21:00:49.076Z,14.35
2022-10-11T21:03:16.937Z,13.43
2022-10-11T21:05:44.209Z,14.05
2022-10-11T21:08:11.471Z,13.18
2022-10-11T21:10:38.811Z,14.07
2022-10-11T21:13:06.238Z,16.23
2022-10-11T21:15:33.351Z,14.43
2022-10-11T21:18:00.076Z,13.80
2022-10-11T21:20:27.116Z,14.82
2022-10-11T21:22:53.853Z,13.57
2022-10-11T21:25:20.895Z,12.90
2022-10-11T21:27:47.888Z,14.13
2022-10-11T21:30:14.837Z,13.52
2022-10-11T21:32:41.836Z,12.13
2022-10-11T21:35:09.799Z,13.47
2022-10-11T21:37:37.002Z,13.30
2022-10-11T21:40:04.596Z,13.35
2022-10-11T21:42:31.602Z,12.82
2022-10-11T21:44:58.358Z,14.27
2022-10-11T21:47:25.129Z,12.90
2022-10-11T21:49:52.374Z,13.68
2022-10-11T21:52:19.615Z,14.07
2022-10-11T21:54:46.516Z,13.05
2022-10-11T21:57:13.720Z,12.40
2022-10-11T21:59:40.517Z,12.03
2022-10-11T22:02:07.461Z,13.10
2022-10-11T22:04:34.494Z,12.45
2022-10-11T22:07:01.766Z,11.77
2022-10-11T22:09:28.798Z,12.02
2022-10-11T22:11:57.017Z,12.40
2022-10-11T22:14:24.551Z,12.05
2022-10-11T22:16:51.413Z,10.85
2022-10-11T22:19:18.236Z,11.10
2022-10-11T22:21:45.518Z,11.30
2022-10-11T22:24:12.798Z,11.23
2022-10-11T22:26:39.713Z,12.02
2022-10-11T22:29:06.689Z,11.57
2022-10-11T22:31:35.483Z,11.32
2022-10-11T22:34:02.641Z,11.98
2022-10-11T22:36:30.129Z,11.43
2022-10-11T22:38:57.511Z,11.35
2022-10-11T22:41:24.437Z,10.38
2022-10-11T22:43:51.837Z,11.70
2022-10-11T22:46:19.012Z,10.95
2022-10-11T22:48:46.120Z,10.77
2022-10-11T22:51:13.040Z,10.57
2022-10-11T22:53:39.788Z,11.77
2022-10-11T22:56:07.088Z,10.07
2022-10-11T22:58:34.570Z,10.20
2022-10-11T23:01:13.994Z,10.37
2022-10-11T23:03:41.092Z,10.75
2022-10-11T23:06:08.461Z,10.18
2022-10-11T23:08:35.593Z,10.10
2022-10-11T23:11:06.662Z,10.38
2022-10-11T23:13:33.703Z,10.83
2022-10-11T23:16:09.472Z,10.10
2022-10-11T23:18:36.459Z,10.13
2022-10-11T23:21:04.299Z,9.60
2022-10-11T23:23:31.508Z,10.32
2022-10-11T23:26:03.085Z,9.27
2022-10-11T23:28:29.956Z,9.00
2022-10-11T23:30:56.994Z,9.85
2022-10-11T23:33:24.212Z,9.30
2022-10-11T23:35:51.207Z,9.75
2022-10-11T23:38:18.440Z,10.03
2022-10-11T23:40:45.243Z,8.80
2022-10-11T23:43:12.147Z,8.27
2022-10-11T23:45:39.101Z,9.35
2022-10-11T23:48:06.129Z,8.27
2022-10-11T23:50:32.919Z,8.53
2022-10-11T23:53:00.086Z,8.80
2022-10-11T23:55:26.873Z,8.38
2022-10-11T23:57:53.929Z,8.95
